NCAR-RAP Real-Time Weather Data

Output produced by METARs form (17 September 2019  17:00 UTC)
found at http://weather.rap.ucar.edu/surface/
 
KAVP 171654Z VRB05KT 10SM CLR 23/08 A3018 RMK AO2 SLP215 T02280078
KAVP 171554Z 00000KT 10SM CLR 21/07 A3020 RMK AO2 SLP220 T02110072
KAVP 171454Z 00000KT 10SM CLR 19/09 A3021 RMK AO2 SLP224 T01890089 50005
KAVP 171354Z 32003KT 10SM CLR 17/10 A3021 RMK AO2 SLP225 T01670100
KAVP 171254Z 00000KT 10SM CLR 15/10 A3020 RMK AO2 SLP223 T01500100
KAVP 171154Z 10004KT 10SM CLR 12/09 A3019 RMK AO2 SLP219 T01170089 10139 20106 53018
KAVP 171054Z AUTO 11005KT 10SM CLR 11/09 A3017 RMK AO2 SLP212 T01060089
KAVP 170954Z 11005KT 10SM FEW095 11/09 A3015 RMK AO2 SLP206 T01110089
KAVP 170854Z 11003KT 10SM CLR 11/09 A3013 RMK AO2 SLP200 T01110094 53001
KAVP 170754Z 11003KT 10SM CLR 12/10 A3012 RMK AO2 SLP196 T01170100
KAVP 170654Z 11004KT 10SM CLR 13/11 A3012 RMK AO2 SLP195 T01280106
KAVP 170554Z 10005KT 10SM CLR 14/11 A3013 RMK AO2 SLP197 T01390111 10200 20139 53010
KAVP 170454Z 09004KT 10SM CLR 15/12 A3012 RMK AO2 SLP193 T01500117 402610150
KAVP 170354Z 10005KT 10SM CLR 16/13 A3011 RMK AO2 SLP188 T01610133
KAVP 170254Z 10004KT 10SM CLR 16/14 A3010 RMK AO2 SLP186 T01610144 51013
KAVP 170054Z 11003KT 10SM CLR 18/16 A3008 RMK AO2 SLP178 T01830156
KAVP 162354Z 03003KT 10SM CLR 20/15 A3006 RMK AO2 SLP173 T02000150 10261 20200 53006
KAVP 162254Z 02006KT 10SM FEW031 22/16 A3005 RMK AO2 SLP168 T02220161
KAVP 162154Z 34003KT 10SM FEW035 BKN050 24/17 A3004 RMK AO2 SLP165 T02390167
KAVP 162054Z 01003KT 10SM FEW028 OVC042 23/17 A3004 RMK AO2 SLP166 T02330167 56007
KAVP 161954Z 34005KT 10SM SCT027 OVC040 24/17 A3004 RMK AO2 SLP166 T02390167